East Hampstead, New Hampshire
Current Conditions -  °F | °C
As of 10:54 PM on Saturday 24 Jan 2015 (Local Time) from KLWM Reporting Station
Clear Clear  
Wind Chill: 21°   Ceiling: Unl
Heat Index: 29°   Visibility: 10mi
Dew Point: 25°   Wind: 8mph
Humidity: 85%   Direction: 250°WSW
Pressure: 29.27"   Gusts: NA
Location:  42.89°N, 71.14°W
Report Text: KLWM 250354Z AUTO 25007KT 10SM CLR M02/M04 A2927 RMK AO2 SLP914 T10171039
Loading
Personal Weather Stations






























Interactive Weather Map New forecast layout! Learn more

10-Day Weather Forecast

Advertisements
Track Severe Weather on mobile